createdAt,value
2023-04-20T00:00:32.676Z,17.02
2023-04-20T00:03:01.844Z,16.90
2023-04-20T00:05:32.054Z,16.68
2023-04-20T00:08:01.365Z,16.13
2023-04-20T00:10:29.565Z,15.77
2023-04-20T00:12:58.977Z,15.96
2023-04-20T00:15:27.021Z,16.02
2023-04-20T00:17:55.123Z,16.68
2023-04-20T00:20:34.590Z,17.04
2023-04-20T00:23:03.648Z,15.41
2023-04-20T00:25:32.353Z,16.29
2023-04-20T00:28:01.781Z,15.04
2023-04-20T00:30:30.011Z,15.35
2023-04-20T00:32:58.764Z,15.81
2023-04-20T00:35:26.871Z,15.68
2023-04-20T00:38:05.068Z,15.63
2023-04-20T00:40:33.533Z,15.09
2023-04-20T00:43:11.961Z,16.24
2023-04-20T00:45:40.143Z,16.15
2023-04-20T00:48:09.030Z,16.72
2023-04-20T00:50:39.050Z,16.00
2023-04-20T00:53:09.115Z,16.39
2023-04-20T00:55:38.890Z,16.74
2023-04-20T00:58:07.716Z,16.90
2023-04-20T01:00:37.169Z,15.78
2023-04-20T01:03:06.328Z,16.55
2023-04-20T01:05:34.751Z,16.58
2023-04-20T01:08:03.503Z,15.56
2023-04-20T01:10:31.947Z,15.76
2023-04-20T01:12:59.919Z,16.74
2023-04-20T01:15:27.990Z,16.18
2023-04-20T01:17:57.959Z,15.99
2023-04-20T01:20:26.130Z,16.41
2023-04-20T01:22:56.251Z,16.75
2023-04-20T01:25:24.527Z,15.83
2023-04-20T01:27:54.576Z,16.83
2023-04-20T01:30:23.883Z,15.75
2023-04-20T01:32:52.523Z,15.93
2023-04-20T01:35:20.745Z,16.44
2023-04-20T01:37:48.803Z,16.55
2023-04-20T01:40:18.164Z,16.23
2023-04-20T01:42:46.143Z,16.41
2023-04-20T01:45:14.158Z,16.97
2023-04-20T01:47:42.176Z,17.02
2023-04-20T01:50:13.548Z,16.22
2023-04-20T01:52:41.452Z,15.72
2023-04-20T01:55:11.666Z,16.55
2023-04-20T01:57:40.855Z,15.96
2023-04-20T02:00:10.345Z,15.29
2023-04-20T02:02:47.020Z,15.71
2023-04-20T02:05:16.778Z,16.00
2023-04-20T02:07:44.627Z,16.44
2023-04-20T02:10:12.589Z,16.42
2023-04-20T02:12:41.881Z,16.34
2023-04-20T02:15:10.476Z,17.26
2023-04-20T02:17:38.465Z,17.56
2023-04-20T02:20:09.167Z,16.58
2023-04-20T02:22:37.380Z,16.22
2023-04-20T02:25:07.658Z,16.77
2023-04-20T02:27:35.656Z,16.41
2023-04-20T02:30:08.348Z,16.86
2023-04-20T02:32:36.742Z,16.62
2023-04-20T02:35:05.768Z,16.17
2023-04-20T02:37:33.701Z,16.24
2023-04-20T02:40:01.789Z,15.40
2023-04-20T02:42:30.777Z,15.39
2023-04-20T02:45:00.488Z,16.09
2023-04-20T02:47:29.831Z,16.06
2023-04-20T02:49:57.934Z,16.61
2023-04-20T02:52:26.162Z,16.32
2023-04-20T02:54:57.787Z,16.35
2023-04-20T02:57:26.682Z,15.79
2023-04-20T02:59:56.599Z,15.95
2023-04-20T03:02:40.755Z,17.24
2023-04-20T03:05:13.360Z,16.26
2023-04-20T03:07:45.792Z,16.53
2023-04-20T03:10:14.480Z,16.72
2023-04-20T03:12:58.080Z,16.32
2023-04-20T03:15:44.768Z,17.16
2023-04-20T03:18:26.526Z,16.61
2023-04-20T03:20:55.347Z,16.18
2023-04-20T03:23:23.644Z,16.08
2023-04-20T03:25:52.313Z,16.79
2023-04-20T03:28:43.460Z,17.31
2023-04-20T03:31:15.100Z,17.08
2023-04-20T03:33:44.928Z,17.21
2023-04-20T03:36:13.221Z,16.57
2023-04-20T03:38:41.467Z,16.36
2023-04-20T03:41:09.449Z,16.33
2023-04-20T03:43:37.695Z,16.85
2023-04-20T03:46:05.698Z,15.96
2023-04-20T03:48:34.005Z,16.16
2023-04-20T03:51:03.442Z,16.08
2023-04-20T03:53:32.621Z,17.01
2023-04-20T03:56:01.799Z,16.74
2023-04-20T03:58:29.892Z,16.15
2023-04-20T04:01:09.741Z,16.34
2023-04-20T04:03:41.541Z,16.54
2023-04-20T04:06:12.757Z,17.00
2023-04-20T04:08:41.781Z,17.27
2023-04-20T04:11:09.770Z,17.41
2023-04-20T04:13:37.618Z,17.64
2023-04-20T04:16:08.387Z,18.24
2023-04-20T04:18:36.857Z,17.41
2023-04-20T04:21:12.032Z,18.20
2023-04-20T04:23:43.458Z,16.99
2023-04-20T04:26:24.758Z,16.16
2023-04-20T04:28:53.892Z,17.36
2023-04-20T04:31:23.651Z,16.28
2023-04-20T04:33:52.473Z,15.93
2023-04-20T04:36:30.701Z,16.91
2023-04-20T04:39:00.151Z,17.22
2023-04-20T04:41:29.203Z,17.18
2023-04-20T04:44:08.901Z,17.57
2023-04-20T04:46:37.194Z,16.67
2023-04-20T04:49:05.886Z,17.44
2023-04-20T04:51:35.270Z,16.50
2023-04-20T04:54:03.352Z,16.84
2023-04-20T04:56:31.220Z,16.77
2023-04-20T04:58:59.206Z,16.93
2023-04-20T05:01:27.141Z,17.45
2023-04-20T05:03:55.370Z,16.82
2023-04-20T05:06:23.585Z,17.49
2023-04-20T05:08:52.830Z,17.37
2023-04-20T05:11:20.798Z,17.90
2023-04-20T05:13:49.911Z,17.70
2023-04-20T05:16:17.828Z,17.28
2023-04-20T05:18:45.731Z,17.22
2023-04-20T05:21:13.639Z,17.57
2023-04-20T05:23:42.061Z,17.29
2023-04-20T05:26:11.594Z,17.15
2023-04-20T05:28:43.219Z,17.46
2023-04-20T05:31:11.302Z,17.34
2023-04-20T05:33:39.443Z,16.95
2023-04-20T05:36:09.982Z,17.49
2023-04-20T05:38:38.030Z,17.22
2023-04-20T05:41:06.516Z,17.79
2023-04-20T05:43:35.944Z,17.78
2023-04-20T05:46:03.835Z,18.48
2023-04-20T05:48:31.897Z,18.08
2023-04-20T05:51:00.078Z,18.67
2023-04-20T05:53:28.031Z,18.56
2023-04-20T05:55:56.185Z,18.07
2023-04-20T05:58:24.757Z,17.49
2023-04-20T06:00:54.720Z,19.00
2023-04-20T06:03:22.810Z,17.46
2023-04-20T06:05:51.261Z,17.04
2023-04-20T06:08:19.488Z,16.43
2023-04-20T06:10:47.460Z,16.39
2023-04-20T06:13:15.436Z,17.17
2023-04-20T06:15:43.579Z,17.18
2023-04-20T06:18:13.092Z,18.70
2023-04-20T06:20:41.087Z,20.63
2023-04-20T06:23:09.208Z,19.33
2023-04-20T06:25:37.384Z,20.53
2023-04-20T06:28:05.574Z,20.38
2023-04-20T06:30:33.806Z,20.43
2023-04-20T06:33:02.155Z,20.97
2023-04-20T06:35:31.534Z,19.47
2023-04-20T06:37:59.589Z,19.65
2023-04-20T06:40:28.134Z,18.23
2023-04-20T06:42:56.383Z,19.05
2023-04-20T06:45:24.523Z,19.44
2023-04-20T06:47:52.578Z,19.18
2023-04-20T06:50:20.783Z,19.41
2023-04-20T06:52:50.614Z,19.68
2023-04-20T06:55:19.119Z,17.92
2023-04-20T06:57:47.512Z,18.46
2023-04-20T07:00:16.567Z,19.26
2023-04-20T07:02:46.475Z,20.35
2023-04-20T07:05:14.838Z,19.18
2023-04-20T07:07:43.375Z,19.82
2023-04-20T07:10:14.637Z,20.27
2023-04-20T07:12:44.085Z,19.65
2023-04-20T07:15:12.701Z,19.39
2023-04-20T07:17:40.756Z,20.90
2023-04-20T07:20:10.026Z,21.13
2023-04-20T07:22:38.974Z,19.82
2023-04-20T07:25:08.862Z,18.96
2023-04-20T07:27:39.332Z,19.25
2023-04-20T07:30:09.156Z,17.71
2023-04-20T07:32:38.424Z,18.27
2023-04-20T07:35:07.217Z,18.22
2023-04-20T07:37:35.271Z,18.24
2023-04-20T07:40:06.138Z,18.32
2023-04-20T07:42:34.855Z,19.87
2023-04-20T07:45:04.835Z,19.42
2023-04-20T07:47:34.151Z,19.74
2023-04-20T07:50:01.972Z,20.63
2023-04-20T07:52:30.047Z,20.80
2023-04-20T07:54:59.563Z,20.76
2023-04-20T07:57:28.169Z,21.34
2023-04-20T07:59:56.191Z,19.41
2023-04-20T08:02:25.605Z,18.01
2023-04-20T08:04:54.179Z,18.50
2023-04-20T08:07:22.537Z,20.50
2023-04-20T08:09:50.814Z,20.64
2023-04-20T08:12:18.750Z,21.14
2023-04-20T08:14:46.639Z,21.50
2023-04-20T08:17:14.573Z,21.55
2023-04-20T08:19:45.960Z,21.54
2023-04-20T08:22:14.301Z,21.71
2023-04-20T08:24:42.336Z,20.40
2023-04-20T08:27:10.141Z,20.34
2023-04-20T08:29:39.564Z,20.65
2023-04-20T08:32:09.137Z,20.27
2023-04-20T08:34:37.439Z,17.73
2023-04-20T08:37:07.205Z,18.51
2023-04-20T08:39:35.135Z,19.12
2023-04-20T08:42:03.322Z,19.65
2023-04-20T08:44:31.336Z,20.47
2023-04-20T08:47:01.605Z,21.11
2023-04-20T08:49:30.839Z,21.57
2023-04-20T08:51:58.731Z,19.43
2023-04-20T08:54:28.317Z,19.87
2023-04-20T08:56:56.885Z,19.46
2023-04-20T08:59:24.672Z,19.67
2023-04-20T09:01:52.693Z,21.21
2023-04-20T09:04:23.262Z,20.16
2023-04-20T09:06:54.029Z,21.96
2023-04-20T09:09:23.812Z,21.79
2023-04-20T09:12:03.629Z,22.43
2023-04-20T09:14:32.150Z,22.08
2023-04-20T09:17:02.155Z,22.26
2023-04-20T09:19:31.291Z,21.74
2023-04-20T09:22:01.242Z,21.80
2023-04-20T09:24:33.705Z,21.61
2023-04-20T09:27:04.307Z,21.99
2023-04-20T09:29:32.302Z,21.67
2023-04-20T09:32:00.283Z,21.66
2023-04-20T09:34:28.228Z,23.32
2023-04-20T09:36:57.775Z,23.56
2023-04-20T09:39:26.860Z,22.67
2023-04-20T09:41:54.793Z,22.70
2023-04-20T09:44:23.992Z,22.45
2023-04-20T09:46:52.264Z,22.30
2023-04-20T09:49:21.340Z,22.77
2023-04-20T09:51:50.713Z,22.46
2023-04-20T09:54:18.680Z,22.88
2023-04-20T09:56:48.592Z,21.24
2023-04-20T09:59:20.222Z,21.83
2023-04-20T10:01:50.062Z,22.11
2023-04-20T10:04:18.255Z,22.17
2023-04-20T10:06:54.780Z,21.43
2023-04-20T10:09:24.469Z,21.49
2023-04-20T10:11:54.606Z,23.35
2023-04-20T10:14:25.569Z,23.01
2023-04-20T10:17:02.457Z,21.99
2023-04-20T10:19:40.961Z,22.30
2023-04-20T10:22:10.048Z,23.10
2023-04-20T10:24:39.070Z,23.31
2023-04-20T10:27:18.139Z,23.12
2023-04-20T10:29:46.458Z,21.27
2023-04-20T10:32:25.273Z,21.36
2023-04-20T10:35:04.827Z,20.76
2023-04-20T10:37:32.866Z,21.04
2023-04-20T10:40:01.704Z,21.32
2023-04-20T10:42:30.669Z,22.69
2023-04-20T10:44:58.886Z,22.45
2023-04-20T10:47:34.239Z,21.33
2023-04-20T10:50:10.235Z,20.98
2023-04-20T10:52:40.028Z,20.98
2023-04-20T10:55:19.174Z,21.84
2023-04-20T10:57:47.151Z,22.69
2023-04-20T11:00:17.797Z,21.00
2023-04-20T11:02:51.707Z,23.09
2023-04-20T11:05:22.557Z,21.82
2023-04-20T11:07:54.550Z,22.12
2023-04-20T11:10:23.484Z,23.52
2023-04-20T11:12:52.157Z,23.02
2023-04-20T11:15:20.032Z,23.75
2023-04-20T11:17:47.891Z,23.23
2023-04-20T11:20:18.556Z,22.42
2023-04-20T11:22:57.831Z,21.74
2023-04-20T11:25:25.933Z,21.12
2023-04-20T11:27:54.082Z,20.63
2023-04-20T11:30:22.001Z,22.10
2023-04-20T11:32:55.851Z,22.69
2023-04-20T11:35:25.394Z,23.66
2023-04-20T11:37:54.429Z,23.33
2023-04-20T11:40:22.628Z,24.06
2023-04-20T11:42:50.794Z,23.45
2023-04-20T11:45:18.945Z,23.37
2023-04-20T11:47:47.387Z,22.35
2023-04-20T11:50:15.426Z,23.01
2023-04-20T11:52:44.845Z,22.98
2023-04-20T11:55:12.751Z,23.27
2023-04-20T11:57:40.915Z,22.32
2023-04-20T12:00:10.314Z,21.63
2023-04-20T12:02:44.029Z,22.69
2023-04-20T12:05:12.519Z,23.17
2023-04-20T12:07:40.548Z,22.89
2023-04-20T12:10:10.814Z,23.47
2023-04-20T12:12:39.115Z,22.16
2023-04-20T12:15:08.265Z,22.70
2023-04-20T12:17:36.244Z,22.53
2023-04-20T12:20:06.146Z,24.47
2023-04-20T12:22:34.330Z,23.30
2023-04-20T12:25:02.189Z,23.28
2023-04-20T12:27:31.426Z,22.82
2023-04-20T12:29:59.289Z,22.37
2023-04-20T12:32:27.191Z,22.18
2023-04-20T12:34:55.204Z,21.91
2023-04-20T12:37:23.130Z,23.30
2023-04-20T12:39:51.343Z,23.93
2023-04-20T12:42:19.496Z,23.36
2023-04-20T12:44:48.717Z,23.00
2023-04-20T12:47:16.568Z,24.21
2023-04-20T12:49:44.481Z,24.52
2023-04-20T12:52:12.389Z,24.54
2023-04-20T12:54:42.709Z,24.38
2023-04-20T12:57:11.933Z,24.47
2023-04-20T12:59:39.775Z,24.17
2023-04-20T13:02:09.192Z,24.31
2023-04-20T13:04:37.219Z,24.25
2023-04-20T13:07:05.154Z,24.00
2023-04-20T13:09:33.164Z,25.01
2023-04-20T13:12:01.301Z,25.18
2023-04-20T13:14:29.242Z,23.02
2023-04-20T13:16:57.360Z,21.84
2023-04-20T13:19:26.908Z,24.46
2023-04-20T13:21:54.799Z,25.23
2023-04-20T13:24:22.776Z,25.38
2023-04-20T13:26:52.771Z,25.45
2023-04-20T13:29:21.141Z,26.08
2023-04-20T13:31:49.283Z,26.09
2023-04-20T13:34:17.646Z,25.96
2023-04-20T13:36:47.336Z,24.35
2023-04-20T13:39:15.559Z,26.46
2023-04-20T13:41:43.553Z,25.15
2023-04-20T13:44:15.870Z,24.71
2023-04-20T13:46:44.725Z,22.89
2023-04-20T13:49:13.500Z,23.62
2023-04-20T13:51:41.884Z,24.60
2023-04-20T13:54:11.137Z,24.80
2023-04-20T13:56:39.008Z,24.49
2023-04-20T13:59:09.069Z,23.21
2023-04-20T14:01:37.464Z,24.31
2023-04-20T14:04:05.985Z,24.58
2023-04-20T14:06:34.039Z,23.81
2023-04-20T14:09:02.182Z,22.11
2023-04-20T14:11:31.876Z,21.78
2023-04-20T14:14:00.194Z,22.24
2023-04-20T14:16:28.610Z,21.40
2023-04-20T14:18:56.842Z,21.76
2023-04-20T14:21:24.704Z,20.60
2023-04-20T14:23:53.460Z,20.00
2023-04-20T14:26:21.683Z,20.00
2023-04-20T14:28:52.604Z,20.06
2023-04-20T14:31:24.067Z,21.78
2023-04-20T14:33:52.057Z,21.95
2023-04-20T14:36:20.486Z,22.11
2023-04-20T14:38:48.487Z,21.05
2023-04-20T14:41:16.988Z,22.03
2023-04-20T14:43:45.195Z,23.32
2023-04-20T14:46:14.452Z,22.39
2023-04-20T14:48:42.806Z,21.58
2023-04-20T14:51:10.815Z,20.95
2023-04-20T14:53:38.719Z,19.89
2023-04-20T14:56:07.126Z,20.26
2023-04-20T14:58:36.021Z,21.06
2023-04-20T15:01:03.970Z,21.77
2023-04-20T15:03:33.470Z,21.38
2023-04-20T15:06:03.632Z,20.13
2023-04-20T15:08:31.581Z,20.85
2023-04-20T15:10:59.455Z,20.76
2023-04-20T15:13:27.500Z,20.17
2023-04-20T15:15:56.006Z,19.82
2023-04-20T15:18:24.017Z,18.84
2023-04-20T15:20:53.561Z,19.77
2023-04-20T15:23:22.062Z,19.66
2023-04-20T15:25:49.953Z,19.75
2023-04-20T15:28:18.010Z,19.92
2023-04-20T15:30:48.742Z,18.79
2023-04-20T15:33:16.812Z,18.66
2023-04-20T15:35:44.883Z,19.78
2023-04-20T15:38:14.145Z,20.69
2023-04-20T15:40:42.171Z,21.25
2023-04-20T15:43:10.109Z,19.96
2023-04-20T15:45:38.044Z,19.47
2023-04-20T15:48:06.510Z,19.54
2023-04-20T15:50:35.486Z,19.00
2023-04-20T15:53:03.937Z,19.04
2023-04-20T15:55:35.642Z,19.69
2023-04-20T15:58:03.668Z,19.56
2023-04-20T16:00:31.646Z,18.93
2023-04-20T16:03:01.443Z,20.47
2023-04-20T16:05:29.737Z,20.27
2023-04-20T16:07:57.962Z,19.99
2023-04-20T16:10:27.283Z,20.34
2023-04-20T16:12:58.071Z,19.55
2023-04-20T16:15:26.059Z,19.51
2023-04-20T16:17:54.381Z,19.86
2023-04-20T16:20:22.570Z,19.61
2023-04-20T16:22:50.468Z,20.04
2023-04-20T16:25:22.836Z,20.40
2023-04-20T16:27:52.009Z,20.48
2023-04-20T16:30:21.730Z,20.66
2023-04-20T16:32:49.928Z,20.23
2023-04-20T16:35:18.476Z,19.94
2023-04-20T16:37:46.934Z,20.18
2023-04-20T16:40:15.019Z,19.93
2023-04-20T16:42:43.154Z,19.74
2023-04-20T16:45:11.421Z,20.63
2023-04-20T16:47:41.282Z,19.72
2023-04-20T16:50:10.143Z,19.88
2023-04-20T16:52:38.243Z,19.58
2023-04-20T16:55:07.240Z,19.81
2023-04-20T16:57:36.166Z,20.23
2023-04-20T17:00:06.568Z,20.38
2023-04-20T17:02:36.460Z,21.74
2023-04-20T17:05:07.748Z,21.26
2023-04-20T17:07:37.525Z,21.11
2023-04-20T17:10:07.083Z,20.38
2023-04-20T17:12:35.316Z,20.67
2023-04-20T17:15:03.460Z,21.49
2023-04-20T17:17:32.751Z,22.71
2023-04-20T17:20:01.269Z,21.75
2023-04-20T17:22:30.704Z,21.71
2023-04-20T17:24:58.988Z,21.67
2023-04-20T17:27:27.286Z,21.84
2023-04-20T17:29:56.054Z,21.11
2023-04-20T17:32:24.778Z,20.75
2023-04-20T17:34:53.946Z,20.54
2023-04-20T17:37:24.463Z,20.91
2023-04-20T17:39:54.124Z,21.06
2023-04-20T17:42:25.035Z,21.29
2023-04-20T17:44:54.076Z,20.84
2023-04-20T17:47:22.730Z,21.15
2023-04-20T17:49:51.093Z,21.17
2023-04-20T17:52:22.300Z,20.79
2023-04-20T17:54:51.128Z,20.90
2023-04-20T17:57:20.916Z,21.31
2023-04-20T17:59:50.761Z,20.73
2023-04-20T18:02:19.060Z,21.12
2023-04-20T18:04:52.561Z,20.62
2023-04-20T18:07:22.221Z,20.72
2023-04-20T18:09:51.095Z,19.77
2023-04-20T18:12:21.308Z,20.57
2023-04-20T18:14:49.609Z,20.47
2023-04-20T18:17:18.248Z,21.06
2023-04-20T18:19:46.695Z,20.57
2023-04-20T18:22:21.491Z,20.09
2023-04-20T18:24:49.931Z,20.14
2023-04-20T18:27:18.493Z,21.11
2023-04-20T18:29:49.837Z,21.19
2023-04-20T18:32:18.223Z,21.17
2023-04-20T18:34:46.636Z,21.13
2023-04-20T18:37:21.362Z,21.85
2023-04-20T18:39:49.633Z,21.81
2023-04-20T18:42:20.310Z,21.45
2023-04-20T18:44:51.123Z,21.87
2023-04-20T18:47:20.949Z,22.70
2023-04-20T18:49:49.158Z,22.49
2023-04-20T18:52:17.410Z,21.86
2023-04-20T18:54:46.914Z,22.49
2023-04-20T18:57:15.059Z,22.79
2023-04-20T18:59:43.252Z,21.76
2023-04-20T19:02:13.577Z,21.63
2023-04-20T19:04:43.934Z,21.61
2023-04-20T19:07:14.107Z,21.60
2023-04-20T19:09:42.219Z,22.58
2023-04-20T19:12:10.495Z,22.32
2023-04-20T19:14:38.650Z,22.17
2023-04-20T19:17:08.479Z,22.27
2023-04-20T19:19:38.043Z,22.01
2023-04-20T19:22:06.174Z,21.69
2023-04-20T19:24:34.485Z,22.18
2023-04-20T19:27:03.279Z,22.49
2023-04-20T19:29:32.826Z,21.85
2023-04-20T19:32:00.980Z,22.08
2023-04-20T19:34:29.246Z,22.28
2023-04-20T19:37:00.483Z,21.61
2023-04-20T19:39:29.054Z,21.96
2023-04-20T19:41:57.632Z,21.84
2023-04-20T19:44:25.533Z,21.43
2023-04-20T19:46:53.746Z,22.17
2023-04-20T19:49:22.070Z,22.57
2023-04-20T19:51:50.139Z,21.60
2023-04-20T19:54:19.762Z,21.24
2023-04-20T19:56:47.731Z,21.77
2023-04-20T19:59:15.904Z,22.39
2023-04-20T20:01:44.172Z,22.51
2023-04-20T20:04:12.693Z,22.35
2023-04-20T20:06:40.767Z,22.28
2023-04-20T20:09:08.643Z,21.81
2023-04-20T20:11:37.839Z,22.44
2023-04-20T20:14:05.670Z,21.86
2023-04-20T20:16:34.149Z,22.45
2023-04-20T20:19:01.993Z,22.65
2023-04-20T20:21:29.807Z,23.01
2023-04-20T20:23:57.685Z,23.05
2023-04-20T20:26:25.574Z,23.15
2023-04-20T20:28:54.856Z,22.77
2023-04-20T20:31:22.740Z,22.84
2023-04-20T20:33:51.041Z,22.58
2023-04-20T20:36:18.891Z,22.70
2023-04-20T20:38:47.270Z,22.30
2023-04-20T20:41:16.340Z,22.94
2023-04-20T20:43:45.677Z,22.47
2023-04-20T20:46:15.061Z,22.06
2023-04-20T20:48:43.101Z,21.83
2023-04-20T20:51:11.653Z,21.70
2023-04-20T20:53:39.549Z,22.41
2023-04-20T20:56:07.666Z,22.32
2023-04-20T20:58:35.502Z,22.04
2023-04-20T21:01:03.534Z,22.03
2023-04-20T21:03:32.984Z,21.27
2023-04-20T21:06:01.010Z,21.48
2023-04-20T21:08:28.876Z,21.78
2023-04-20T21:10:56.733Z,21.13
2023-04-20T21:13:25.046Z,20.77
2023-04-20T21:15:53.033Z,21.77
2023-04-20T21:18:21.052Z,21.13
2023-04-20T21:20:50.480Z,21.06
2023-04-20T21:23:18.434Z,20.71
2023-04-20T21:25:46.252Z,20.57
2023-04-20T21:28:14.145Z,21.26
2023-04-20T21:30:41.937Z,21.36
2023-04-20T21:33:09.989Z,20.97
2023-04-20T21:35:37.982Z,20.43
2023-04-20T21:38:07.389Z,20.63
2023-04-20T21:40:35.747Z,20.61
2023-04-20T21:43:03.884Z,20.77
2023-04-20T21:45:31.803Z,20.40
2023-04-20T21:47:59.746Z,20.40
2023-04-20T21:50:28.601Z,20.08
2023-04-20T21:52:56.501Z,20.03
2023-04-20T21:55:25.799Z,19.91
2023-04-20T21:57:53.629Z,20.17
2023-04-20T22:00:21.775Z,20.60
2023-04-20T22:02:50.536Z,20.05
2023-04-20T22:05:18.699Z,20.03
2023-04-20T22:07:46.893Z,20.14
2023-04-20T22:10:15.190Z,20.41
2023-04-20T22:12:44.563Z,20.78
2023-04-20T22:15:14.788Z,19.57
2023-04-20T22:17:45.438Z,20.05
2023-04-20T22:20:14.741Z,19.45
2023-04-20T22:22:43.027Z,20.48
2023-04-20T22:25:11.692Z,19.71
2023-04-20T22:27:39.625Z,19.66
2023-04-20T22:30:10.176Z,19.71
2023-04-20T22:32:38.641Z,19.52
2023-04-20T22:35:07.824Z,19.08
2023-04-20T22:37:36.402Z,19.45
2023-04-20T22:40:05.898Z,19.07
2023-04-20T22:42:34.723Z,19.34
2023-04-20T22:45:02.762Z,18.86
2023-04-20T22:47:32.379Z,19.44
2023-04-20T22:50:00.364Z,19.60
2023-04-20T22:52:28.135Z,20.45
2023-04-20T22:54:56.028Z,21.06
2023-04-20T22:57:24.207Z,19.68
2023-04-20T22:59:52.111Z,19.78
2023-04-20T23:02:20.130Z,19.56
2023-04-20T23:04:52.071Z,19.66
2023-04-20T23:07:21.193Z,19.68
2023-04-20T23:09:49.226Z,19.72
2023-04-20T23:12:17.516Z,19.83
2023-04-20T23:14:45.577Z,19.15
2023-04-20T23:17:13.708Z,19.16
2023-04-20T23:19:41.763Z,19.56
2023-04-20T23:22:10.980Z,19.81
2023-04-20T23:24:38.825Z,19.05
2023-04-20T23:27:06.800Z,18.83
2023-04-20T23:29:34.753Z,18.93
2023-04-20T23:32:02.921Z,18.72
2023-04-20T23:34:31.430Z,18.87
2023-04-20T23:36:59.400Z,19.10
2023-04-20T23:39:28.772Z,19.50
2023-04-20T23:41:57.792Z,19.47
2023-04-20T23:44:25.837Z,20.09
2023-04-20T23:46:53.714Z,20.03
2023-04-20T23:49:21.784Z,19.65
2023-04-20T23:51:50.969Z,19.43
2023-04-20T23:54:19.155Z,19.67
2023-04-20T23:56:48.381Z,19.59
2023-04-20T23:59:16.384Z,19.95
